sensor_id;sensor_type;location;lat;lon;timestamp;P1;durP1;ratioP1;P2;durP2;ratioP2
19105;SDS011;9685;54.338;18.672;2023-11-19T00:00:29;324.90;;;108.43;;
19105;SDS011;9685;54.338;18.672;2023-11-19T00:02:56;188.53;;;69.80;;
19105;SDS011;9685;54.338;18.672;2023-11-19T00:05:23;99.20;;;42.90;;
19105;SDS011;9685;54.338;18.672;2023-11-19T00:07:50;261.03;;;87.37;;
19105;SDS011;9685;54.338;18.672;2023-11-19T00:10:17;434.50;;;149.43;;
19105;SDS011;9685;54.338;18.672;2023-11-19T00:12:46;176.83;;;59.87;;
19105;SDS011;9685;54.338;18.672;2023-11-19T00:15:15;278.07;;;92.27;;
19105;SDS011;9685;54.338;18.672;2023-11-19T00:17:44;201.03;;;71.97;;
19105;SDS011;9685;54.338;18.672;2023-11-19T00:20:12;386.57;;;131.00;;
19105;SDS011;9685;54.338;18.672;2023-11-19T00:22:40;308.57;;;104.03;;
19105;SDS011;9685;54.338;18.672;2023-11-19T00:25:08;356.67;;;116.70;;
19105;SDS011;9685;54.338;18.672;2023-11-19T00:27:36;115.37;;;46.63;;
19105;SDS011;9685;54.338;18.672;2023-11-19T00:30:03;104.43;;;40.27;;
19105;SDS011;9685;54.338;18.672;2023-11-19T00:32:33;376.57;;;123.00;;
19105;SDS011;9685;54.338;18.672;2023-11-19T00:35:00;82.13;;;35.60;;
19105;SDS011;9685;54.338;18.672;2023-11-19T00:37:28;351.23;;;113.63;;
19105;SDS011;9685;54.338;18.672;2023-11-19T00:39:55;263.97;;;92.87;;
19105;SDS011;9685;54.338;18.672;2023-11-19T00:42:21;335.60;;;120.60;;
19105;SDS011;9685;54.338;18.672;2023-11-19T00:44:49;46.63;;;25.87;;
19105;SDS011;9685;54.338;18.672;2023-11-19T00:47:16;37.97;;;21.23;;
19105;SDS011;9685;54.338;18.672;2023-11-19T00:49:46;38.40;;;21.47;;
19105;SDS011;9685;54.338;18.672;2023-11-19T00:52:16;40.50;;;20.67;;
19105;SDS011;9685;54.338;18.672;2023-11-19T00:54:44;39.00;;;20.80;;
19105;SDS011;9685;54.338;18.672;2023-11-19T00:57:11;42.40;;;20.70;;
19105;SDS011;9685;54.338;18.672;2023-11-19T00:59:38;39.73;;;21.53;;
19105;SDS011;9685;54.338;18.672;2023-11-19T01:02:07;43.63;;;23.77;;
19105;SDS011;9685;54.338;18.672;2023-11-19T01:04:34;39.93;;;22.17;;
19105;SDS011;9685;54.338;18.672;2023-11-19T01:07:03;44.53;;;22.03;;
19105;SDS011;9685;54.338;18.672;2023-11-19T01:09:31;46.53;;;24.17;;
19105;SDS011;9685;54.338;18.672;2023-11-19T01:11:57;41.17;;;20.63;;
19105;SDS011;9685;54.338;18.672;2023-11-19T01:14:25;37.77;;;20.20;;
19105;SDS011;9685;54.338;18.672;2023-11-19T01:16:52;41.60;;;21.47;;
19105;SDS011;9685;54.338;18.672;2023-11-19T01:19:20;36.63;;;20.23;;
19105;SDS011;9685;54.338;18.672;2023-11-19T01:21:47;34.47;;;19.57;;
19105;SDS011;9685;54.338;18.672;2023-11-19T01:24:16;40.53;;;19.30;;
19105;SDS011;9685;54.338;18.672;2023-11-19T01:26:43;30.80;;;18.70;;
19105;SDS011;9685;54.338;18.672;2023-11-19T01:29:10;40.87;;;19.63;;
19105;SDS011;9685;54.338;18.672;2023-11-19T01:31:39;33.70;;;17.83;;
19105;SDS011;9685;54.338;18.672;2023-11-19T01:34:05;37.13;;;19.23;;
19105;SDS011;9685;54.338;18.672;2023-11-19T01:36:33;36.93;;;20.23;;
19105;SDS011;9685;54.338;18.672;2023-11-19T01:38:59;41.07;;;22.90;;
19105;SDS011;9685;54.338;18.672;2023-11-19T01:41:28;37.73;;;20.07;;
19105;SDS011;9685;54.338;18.672;2023-11-19T01:43:55;35.13;;;19.87;;
19105;SDS011;9685;54.338;18.672;2023-11-19T01:46:21;33.97;;;18.50;;
19105;SDS011;9685;54.338;18.672;2023-11-19T01:48:48;43.83;;;22.50;;
19105;SDS011;9685;54.338;18.672;2023-11-19T01:51:15;40.73;;;21.93;;
19105;SDS011;9685;54.338;18.672;2023-11-19T01:53:43;41.47;;;20.93;;
19105;SDS011;9685;54.338;18.672;2023-11-19T01:56:11;34.53;;;20.27;;
19105;SDS011;9685;54.338;18.672;2023-11-19T01:58:42;39.90;;;21.70;;
19105;SDS011;9685;54.338;18.672;2023-11-19T02:01:10;43.10;;;22.47;;
19105;SDS011;9685;54.338;18.672;2023-11-19T02:03:38;42.30;;;23.10;;
19105;SDS011;9685;54.338;18.672;2023-11-19T02:06:06;37.00;;;20.13;;
19105;SDS011;9685;54.338;18.672;2023-11-19T02:08:35;43.67;;;22.77;;
19105;SDS011;9685;54.338;18.672;2023-11-19T02:11:02;42.90;;;22.87;;
19105;SDS011;9685;54.338;18.672;2023-11-19T02:13:31;45.10;;;22.97;;
19105;SDS011;9685;54.338;18.672;2023-11-19T02:16:00;45.00;;;24.40;;
19105;SDS011;9685;54.338;18.672;2023-11-19T02:18:27;42.43;;;22.73;;
19105;SDS011;9685;54.338;18.672;2023-11-19T02:20:54;39.47;;;21.43;;
19105;SDS011;9685;54.338;18.672;2023-11-19T02:23:22;40.57;;;23.33;;
19105;SDS011;9685;54.338;18.672;2023-11-19T02:25:54;45.53;;;26.27;;
19105;SDS011;9685;54.338;18.672;2023-11-19T02:28:29;44.93;;;25.63;;
19105;SDS011;9685;54.338;18.672;2023-11-19T02:30:57;40.30;;;25.70;;
19105;SDS011;9685;54.338;18.672;2023-11-19T02:33:24;50.07;;;30.13;;
19105;SDS011;9685;54.338;18.672;2023-11-19T02:35:51;48.03;;;29.53;;
19105;SDS011;9685;54.338;18.672;2023-11-19T02:38:18;45.13;;;25.30;;
19105;SDS011;9685;54.338;18.672;2023-11-19T02:40:46;48.13;;;25.03;;
19105;SDS011;9685;54.338;18.672;2023-11-19T02:43:14;43.83;;;24.00;;
19105;SDS011;9685;54.338;18.672;2023-11-19T02:45:42;40.97;;;23.03;;
19105;SDS011;9685;54.338;18.672;2023-11-19T02:48:10;44.87;;;23.30;;
19105;SDS011;9685;54.338;18.672;2023-11-19T02:50:39;47.30;;;24.40;;
19105;SDS011;9685;54.338;18.672;2023-11-19T02:53:06;42.47;;;23.43;;
19105;SDS011;9685;54.338;18.672;2023-11-19T02:55:33;49.47;;;24.70;;
19105;SDS011;9685;54.338;18.672;2023-11-19T02:58:03;44.63;;;24.17;;
19105;SDS011;9685;54.338;18.672;2023-11-19T03:00:34;41.33;;;24.10;;
19105;SDS011;9685;54.338;18.672;2023-11-19T03:03:08;44.20;;;24.03;;
19105;SDS011;9685;54.338;18.672;2023-11-19T03:05:45;43.50;;;22.87;;
19105;SDS011;9685;54.338;18.672;2023-11-19T03:08:13;40.57;;;23.23;;
19105;SDS011;9685;54.338;18.672;2023-11-19T03:10:41;44.47;;;23.57;;
19105;SDS011;9685;54.338;18.672;2023-11-19T03:13:10;39.10;;;22.57;;
19105;SDS011;9685;54.338;18.672;2023-11-19T03:15:40;43.03;;;23.40;;
19105;SDS011;9685;54.338;18.672;2023-11-19T03:18:08;41.60;;;22.70;;
19105;SDS011;9685;54.338;18.672;2023-11-19T03:20:35;42.87;;;22.23;;
19105;SDS011;9685;54.338;18.672;2023-11-19T03:23:02;41.77;;;23.93;;
19105;SDS011;9685;54.338;18.672;2023-11-19T03:25:29;41.60;;;22.50;;
19105;SDS011;9685;54.338;18.672;2023-11-19T03:27:59;42.87;;;22.93;;
19105;SDS011;9685;54.338;18.672;2023-11-19T03:30:26;44.93;;;23.40;;
19105;SDS011;9685;54.338;18.672;2023-11-19T03:32:54;42.90;;;23.87;;
19105;SDS011;9685;54.338;18.672;2023-11-19T03:35:22;41.47;;;23.53;;
19105;SDS011;9685;54.338;18.672;2023-11-19T03:37:49;44.17;;;24.70;;
19105;SDS011;9685;54.338;18.672;2023-11-19T03:40:17;43.20;;;24.37;;
19105;SDS011;9685;54.338;18.672;2023-11-19T03:42:45;47.47;;;25.17;;
19105;SDS011;9685;54.338;18.672;2023-11-19T03:45:12;81.53;;;31.10;;
19105;SDS011;9685;54.338;18.672;2023-11-19T03:47:39;100.90;;;35.83;;
19105;SDS011;9685;54.338;18.672;2023-11-19T03:50:06;60.03;;;27.87;;
19105;SDS011;9685;54.338;18.672;2023-11-19T03:52:35;55.30;;;26.83;;
19105;SDS011;9685;54.338;18.672;2023-11-19T03:55:03;52.30;;;26.80;;
19105;SDS011;9685;54.338;18.672;2023-11-19T03:57:30;47.53;;;25.37;;
19105;SDS011;9685;54.338;18.672;2023-11-19T03:59:57;42.50;;;22.17;;
19105;SDS011;9685;54.338;18.672;2023-11-19T04:02:25;33.53;;;19.37;;
19105;SDS011;9685;54.338;18.672;2023-11-19T04:04:54;40.93;;;21.17;;
19105;SDS011;9685;54.338;18.672;2023-11-19T04:07:21;36.57;;;19.83;;
19105;SDS011;9685;54.338;18.672;2023-11-19T04:09:49;35.33;;;19.60;;
19105;SDS011;9685;54.338;18.672;2023-11-19T04:12:16;35.53;;;19.33;;
19105;SDS011;9685;54.338;18.672;2023-11-19T04:14:43;32.07;;;18.20;;
19105;SDS011;9685;54.338;18.672;2023-11-19T04:17:10;31.67;;;17.37;;
19105;SDS011;9685;54.338;18.672;2023-11-19T04:19:37;32.17;;;15.57;;
19105;SDS011;9685;54.338;18.672;2023-11-19T04:22:06;31.87;;;18.00;;
19105;SDS011;9685;54.338;18.672;2023-11-19T04:24:33;31.63;;;17.60;;
19105;SDS011;9685;54.338;18.672;2023-11-19T04:27:02;30.50;;;16.83;;
19105;SDS011;9685;54.338;18.672;2023-11-19T04:29:30;33.87;;;16.27;;
19105;SDS011;9685;54.338;18.672;2023-11-19T04:31:57;31.23;;;16.83;;
19105;SDS011;9685;54.338;18.672;2023-11-19T04:34:29;33.43;;;18.00;;
19105;SDS011;9685;54.338;18.672;2023-11-19T04:36:55;30.07;;;17.43;;
19105;SDS011;9685;54.338;18.672;2023-11-19T04:39:22;33.27;;;17.77;;
19105;SDS011;9685;54.338;18.672;2023-11-19T04:41:49;35.37;;;19.23;;
19105;SDS011;9685;54.338;18.672;2023-11-19T04:44:19;30.33;;;17.43;;
19105;SDS011;9685;54.338;18.672;2023-11-19T04:46:47;32.67;;;17.90;;
19105;SDS011;9685;54.338;18.672;2023-11-19T04:49:14;29.53;;;16.07;;
19105;SDS011;9685;54.338;18.672;2023-11-19T04:51:42;32.13;;;18.40;;
19105;SDS011;9685;54.338;18.672;2023-11-19T04:54:09;35.13;;;17.87;;
19105;SDS011;9685;54.338;18.672;2023-11-19T04:56:36;33.23;;;17.63;;
19105;SDS011;9685;54.338;18.672;2023-11-19T04:59:03;30.27;;;16.67;;
19105;SDS011;9685;54.338;18.672;2023-11-19T05:01:32;28.43;;;16.27;;
19105;SDS011;9685;54.338;18.672;2023-11-19T05:03:59;33.73;;;16.87;;
19105;SDS011;9685;54.338;18.672;2023-11-19T05:06:27;33.67;;;17.23;;
19105;SDS011;9685;54.338;18.672;2023-11-19T05:08:54;29.33;;;15.90;;
19105;SDS011;9685;54.338;18.672;2023-11-19T05:11:21;35.37;;;18.87;;
19105;SDS011;9685;54.338;18.672;2023-11-19T05:13:48;30.70;;;17.13;;
19105;SDS011;9685;54.338;18.672;2023-11-19T05:16:16;36.37;;;19.10;;
19105;SDS011;9685;54.338;18.672;2023-11-19T05:18:45;34.13;;;16.97;;
19105;SDS011;9685;54.338;18.672;2023-11-19T05:21:12;30.43;;;17.43;;
19105;SDS011;9685;54.338;18.672;2023-11-19T05:23:39;31.03;;;15.60;;
19105;SDS011;9685;54.338;18.672;2023-11-19T05:26:07;29.93;;;15.67;;
19105;SDS011;9685;54.338;18.672;2023-11-19T05:28:35;32.57;;;16.70;;
19105;SDS011;9685;54.338;18.672;2023-11-19T05:31:04;29.70;;;17.10;;
19105;SDS011;9685;54.338;18.672;2023-11-19T05:33:32;34.23;;;17.87;;
19105;SDS011;9685;54.338;18.672;2023-11-19T05:36:00;37.17;;;18.43;;
19105;SDS011;9685;54.338;18.672;2023-11-19T05:38:28;42.57;;;21.37;;
19105;SDS011;9685;54.338;18.672;2023-11-19T05:40:55;83.50;;;32.20;;
19105;SDS011;9685;54.338;18.672;2023-11-19T05:43:22;115.80;;;41.27;;
19105;SDS011;9685;54.338;18.672;2023-11-19T05:45:49;76.60;;;34.17;;
19105;SDS011;9685;54.338;18.672;2023-11-19T05:48:16;39.87;;;20.57;;
19105;SDS011;9685;54.338;18.672;2023-11-19T05:50:43;29.63;;;16.13;;
19105;SDS011;9685;54.338;18.672;2023-11-19T05:53:11;27.13;;;15.23;;
19105;SDS011;9685;54.338;18.672;2023-11-19T05:55:40;30.77;;;16.43;;
19105;SDS011;9685;54.338;18.672;2023-11-19T05:58:13;31.37;;;16.17;;
19105;SDS011;9685;54.338;18.672;2023-11-19T06:00:40;29.37;;;15.80;;
19105;SDS011;9685;54.338;18.672;2023-11-19T06:03:08;31.37;;;17.20;;
19105;SDS011;9685;54.338;18.672;2023-11-19T06:05:35;32.00;;;16.00;;
19105;SDS011;9685;54.338;18.672;2023-11-19T06:08:02;34.87;;;18.53;;
19105;SDS011;9685;54.338;18.672;2023-11-19T06:10:30;32.90;;;18.13;;
19105;SDS011;9685;54.338;18.672;2023-11-19T06:12:57;30.00;;;17.33;;
19105;SDS011;9685;54.338;18.672;2023-11-19T06:15:24;29.23;;;16.57;;
19105;SDS011;9685;54.338;18.672;2023-11-19T06:17:52;33.43;;;18.43;;
19105;SDS011;9685;54.338;18.672;2023-11-19T06:20:19;34.37;;;18.03;;
19105;SDS011;9685;54.338;18.672;2023-11-19T06:22:46;33.87;;;17.83;;
19105;SDS011;9685;54.338;18.672;2023-11-19T06:25:13;36.10;;;18.53;;
19105;SDS011;9685;54.338;18.672;2023-11-19T06:27:42;33.23;;;16.87;;
19105;SDS011;9685;54.338;18.672;2023-11-19T06:30:10;35.20;;;18.17;;
19105;SDS011;9685;54.338;18.672;2023-11-19T06:32:37;33.20;;;17.80;;
19105;SDS011;9685;54.338;18.672;2023-11-19T06:35:05;34.53;;;16.97;;
19105;SDS011;9685;54.338;18.672;2023-11-19T06:37:32;45.97;;;24.37;;
19105;SDS011;9685;54.338;18.672;2023-11-19T06:40:00;41.23;;;23.50;;
19105;SDS011;9685;54.338;18.672;2023-11-19T06:42:28;51.53;;;28.40;;
19105;SDS011;9685;54.338;18.672;2023-11-19T06:44:57;38.73;;;21.10;;
19105;SDS011;9685;54.338;18.672;2023-11-19T06:47:25;38.03;;;20.97;;
19105;SDS011;9685;54.338;18.672;2023-11-19T06:49:52;31.63;;;18.53;;
19105;SDS011;9685;54.338;18.672;2023-11-19T06:52:19;35.37;;;20.33;;
19105;SDS011;9685;54.338;18.672;2023-11-19T06:54:46;40.70;;;23.63;;
19105;SDS011;9685;54.338;18.672;2023-11-19T06:57:13;39.47;;;21.73;;
19105;SDS011;9685;54.338;18.672;2023-11-19T06:59:40;52.30;;;27.50;;
19105;SDS011;9685;54.338;18.672;2023-11-19T07:02:09;53.50;;;28.30;;
19105;SDS011;9685;54.338;18.672;2023-11-19T07:04:36;33.73;;;19.00;;
19105;SDS011;9685;54.338;18.672;2023-11-19T07:07:03;36.47;;;20.93;;
19105;SDS011;9685;54.338;18.672;2023-11-19T07:09:30;32.50;;;17.33;;
19105;SDS011;9685;54.338;18.672;2023-11-19T07:11:57;33.17;;;19.53;;
19105;SDS011;9685;54.338;18.672;2023-11-19T07:14:25;30.80;;;16.57;;
19105;SDS011;9685;54.338;18.672;2023-11-19T07:16:51;30.20;;;18.63;;
19105;SDS011;9685;54.338;18.672;2023-11-19T07:19:20;35.20;;;20.67;;
19105;SDS011;9685;54.338;18.672;2023-11-19T07:21:47;29.50;;;16.33;;
19105;SDS011;9685;54.338;18.672;2023-11-19T07:24:14;31.20;;;17.07;;
19105;SDS011;9685;54.338;18.672;2023-11-19T07:26:42;31.90;;;19.00;;
19105;SDS011;9685;54.338;18.672;2023-11-19T07:29:09;36.07;;;20.97;;
19105;SDS011;9685;54.338;18.672;2023-11-19T07:31:36;34.87;;;20.23;;
19105;SDS011;9685;54.338;18.672;2023-11-19T07:34:03;32.80;;;19.37;;
19105;SDS011;9685;54.338;18.672;2023-11-19T07:36:32;34.40;;;19.43;;
19105;SDS011;9685;54.338;18.672;2023-11-19T07:39:00;27.80;;;17.37;;
19105;SDS011;9685;54.338;18.672;2023-11-19T07:41:27;30.93;;;16.23;;
19105;SDS011;9685;54.338;18.672;2023-11-19T07:43:54;49.73;;;23.77;;
19105;SDS011;9685;54.338;18.672;2023-11-19T07:46:21;36.33;;;18.53;;
19105;SDS011;9685;54.338;18.672;2023-11-19T07:48:48;34.53;;;19.00;;
19105;SDS011;9685;54.338;18.672;2023-11-19T07:51:15;38.07;;;17.90;;
19105;SDS011;9685;54.338;18.672;2023-11-19T07:53:43;32.83;;;16.70;;
19105;SDS011;9685;54.338;18.672;2023-11-19T07:56:10;68.17;;;34.00;;
19105;SDS011;9685;54.338;18.672;2023-11-19T07:58:37;43.63;;;23.30;;
19105;SDS011;9685;54.338;18.672;2023-11-19T08:01:04;41.47;;;19.23;;
19105;SDS011;9685;54.338;18.672;2023-11-19T08:03:32;44.53;;;21.10;;
19105;SDS011;9685;54.338;18.672;2023-11-19T08:06:00;27.70;;;15.23;;
19105;SDS011;9685;54.338;18.672;2023-11-19T08:08:27;33.10;;;17.87;;
19105;SDS011;9685;54.338;18.672;2023-11-19T08:10:56;30.87;;;17.23;;
19105;SDS011;9685;54.338;18.672;2023-11-19T08:13:24;29.60;;;15.40;;
19105;SDS011;9685;54.338;18.672;2023-11-19T08:15:51;27.10;;;15.10;;
19105;SDS011;9685;54.338;18.672;2023-11-19T08:18:18;28.43;;;15.47;;
19105;SDS011;9685;54.338;18.672;2023-11-19T08:20:45;28.00;;;14.93;;
19105;SDS011;9685;54.338;18.672;2023-11-19T08:23:18;28.53;;;15.03;;
19105;SDS011;9685;54.338;18.672;2023-11-19T08:25:46;25.40;;;14.47;;
19105;SDS011;9685;54.338;18.672;2023-11-19T08:28:14;22.10;;;12.10;;
19105;SDS011;9685;54.338;18.672;2023-11-19T08:30:41;28.30;;;14.97;;
19105;SDS011;9685;54.338;18.672;2023-11-19T08:33:09;28.03;;;14.10;;
19105;SDS011;9685;54.338;18.672;2023-11-19T08:35:36;24.13;;;14.07;;
19105;SDS011;9685;54.338;18.672;2023-11-19T08:38:03;26.43;;;15.00;;
19105;SDS011;9685;54.338;18.672;2023-11-19T08:40:30;23.50;;;14.43;;
19105;SDS011;9685;54.338;18.672;2023-11-19T08:42:57;24.77;;;14.53;;
19105;SDS011;9685;54.338;18.672;2023-11-19T08:45:25;19.80;;;12.43;;
19105;SDS011;9685;54.338;18.672;2023-11-19T08:47:52;18.17;;;10.63;;
19105;SDS011;9685;54.338;18.672;2023-11-19T08:50:19;22.27;;;13.53;;
19105;SDS011;9685;54.338;18.672;2023-11-19T08:52:46;20.97;;;12.17;;
19105;SDS011;9685;54.338;18.672;2023-11-19T08:55:13;23.23;;;13.57;;
19105;SDS011;9685;54.338;18.672;2023-11-19T08:57:40;26.00;;;14.57;;
19105;SDS011;9685;54.338;18.672;2023-11-19T09:00:07;29.73;;;15.70;;
19105;SDS011;9685;54.338;18.672;2023-11-19T09:02:36;23.57;;;11.80;;
19105;SDS011;9685;54.338;18.672;2023-11-19T09:05:03;29.80;;;14.07;;
19105;SDS011;9685;54.338;18.672;2023-11-19T09:07:31;31.63;;;15.07;;
19105;SDS011;9685;54.338;18.672;2023-11-19T09:09:57;27.50;;;14.07;;
19105;SDS011;9685;54.338;18.672;2023-11-19T09:12:24;28.23;;;15.67;;
19105;SDS011;9685;54.338;18.672;2023-11-19T09:14:51;24.63;;;13.07;;
19105;SDS011;9685;54.338;18.672;2023-11-19T09:17:18;33.97;;;16.37;;
19105;SDS011;9685;54.338;18.672;2023-11-19T09:19:46;30.43;;;15.33;;
19105;SDS011;9685;54.338;18.672;2023-11-19T09:22:13;33.83;;;17.50;;
19105;SDS011;9685;54.338;18.672;2023-11-19T09:24:41;34.17;;;19.17;;
19105;SDS011;9685;54.338;18.672;2023-11-19T09:27:09;35.27;;;18.13;;
19105;SDS011;9685;54.338;18.672;2023-11-19T09:29:36;46.33;;;19.80;;
19105;SDS011;9685;54.338;18.672;2023-11-19T09:32:04;29.57;;;17.07;;
19105;SDS011;9685;54.338;18.672;2023-11-19T09:34:31;25.37;;;13.37;;
19105;SDS011;9685;54.338;18.672;2023-11-19T09:37:00;23.63;;;13.87;;
19105;SDS011;9685;54.338;18.672;2023-11-19T09:39:28;23.40;;;14.13;;
19105;SDS011;9685;54.338;18.672;2023-11-19T09:41:55;25.60;;;13.57;;
19105;SDS011;9685;54.338;18.672;2023-11-19T09:44:22;26.30;;;15.57;;
19105;SDS011;9685;54.338;18.672;2023-11-19T09:46:50;25.67;;;14.83;;
19105;SDS011;9685;54.338;18.672;2023-11-19T09:49:18;19.97;;;11.40;;
19105;SDS011;9685;54.338;18.672;2023-11-19T09:51:47;32.60;;;15.30;;
19105;SDS011;9685;54.338;18.672;2023-11-19T09:54:15;42.50;;;21.73;;
19105;SDS011;9685;54.338;18.672;2023-11-19T09:56:42;35.53;;;18.23;;
19105;SDS011;9685;54.338;18.672;2023-11-19T09:59:10;46.67;;;23.50;;
19105;SDS011;9685;54.338;18.672;2023-11-19T10:01:37;26.00;;;14.57;;
19105;SDS011;9685;54.338;18.672;2023-11-19T10:04:05;40.90;;;24.00;;
19105;SDS011;9685;54.338;18.672;2023-11-19T10:06:32;31.87;;;17.67;;
19105;SDS011;9685;54.338;18.672;2023-11-19T10:08:59;30.70;;;16.40;;
19105;SDS011;9685;54.338;18.672;2023-11-19T10:11:28;35.60;;;19.60;;
19105;SDS011;9685;54.338;18.672;2023-11-19T10:13:55;40.27;;;20.83;;
19105;SDS011;9685;54.338;18.672;2023-11-19T10:16:27;45.47;;;21.43;;
19105;SDS011;9685;54.338;18.672;2023-11-19T10:18:56;43.07;;;19.47;;
19105;SDS011;9685;54.338;18.672;2023-11-19T10:21:23;45.00;;;21.23;;
19105;SDS011;9685;54.338;18.672;2023-11-19T10:23:53;28.93;;;14.93;;
19105;SDS011;9685;54.338;18.672;2023-11-19T10:26:22;35.50;;;19.00;;
19105;SDS011;9685;54.338;18.672;2023-11-19T10:28:50;33.80;;;17.13;;
19105;SDS011;9685;54.338;18.672;2023-11-19T10:31:18;28.57;;;16.23;;
19105;SDS011;9685;54.338;18.672;2023-11-19T10:33:49;38.13;;;19.43;;
19105;SDS011;9685;54.338;18.672;2023-11-19T10:36:17;39.43;;;19.10;;
19105;SDS011;9685;54.338;18.672;2023-11-19T10:38:51;37.73;;;17.17;;
19105;SDS011;9685;54.338;18.672;2023-11-19T10:41:26;38.87;;;17.43;;
19105;SDS011;9685;54.338;18.672;2023-11-19T10:43:55;33.17;;;16.93;;
19105;SDS011;9685;54.338;18.672;2023-11-19T10:46:22;38.83;;;20.13;;
19105;SDS011;9685;54.338;18.672;2023-11-19T10:49:02;38.70;;;19.07;;
19105;SDS011;9685;54.338;18.672;2023-11-19T10:51:29;48.67;;;22.03;;
19105;SDS011;9685;54.338;18.672;2023-11-19T10:53:56;40.83;;;20.60;;
19105;SDS011;9685;54.338;18.672;2023-11-19T10:56:29;46.60;;;22.17;;
19105;SDS011;9685;54.338;18.672;2023-11-19T10:58:59;41.30;;;21.80;;
19105;SDS011;9685;54.338;18.672;2023-11-19T11:01:26;46.67;;;23.90;;
19105;SDS011;9685;54.338;18.672;2023-11-19T11:03:59;47.27;;;25.37;;
19105;SDS011;9685;54.338;18.672;2023-11-19T11:06:26;44.23;;;21.37;;
19105;SDS011;9685;54.338;18.672;2023-11-19T11:08:54;50.60;;;26.90;;
19105;SDS011;9685;54.338;18.672;2023-11-19T11:11:21;46.47;;;21.83;;
19105;SDS011;9685;54.338;18.672;2023-11-19T11:13:49;45.67;;;21.33;;
19105;SDS011;9685;54.338;18.672;2023-11-19T11:16:18;45.33;;;23.87;;
19105;SDS011;9685;54.338;18.672;2023-11-19T11:18:48;37.93;;;18.27;;
19105;SDS011;9685;54.338;18.672;2023-11-19T11:21:16;50.80;;;28.10;;
19105;SDS011;9685;54.338;18.672;2023-11-19T11:30:11;49.87;;;25.43;;
19105;SDS011;9685;54.338;18.672;2023-11-19T11:32:59;53.47;;;26.30;;
19105;SDS011;9685;54.338;18.672;2023-11-19T11:35:34;51.60;;;24.67;;
19105;SDS011;9685;54.338;18.672;2023-11-19T11:38:14;48.47;;;23.47;;
19105;SDS011;9685;54.338;18.672;2023-11-19T11:40:55;49.60;;;24.50;;
19105;SDS011;9685;54.338;18.672;2023-11-19T11:43:46;50.90;;;24.03;;
19105;SDS011;9685;54.338;18.672;2023-11-19T11:49:26;51.00;;;26.37;;
19105;SDS011;9685;54.338;18.672;2023-11-19T11:52:01;41.87;;;20.67;;
19105;SDS011;9685;54.338;18.672;2023-11-19T11:54:32;54.97;;;24.43;;
19105;SDS011;9685;54.338;18.672;2023-11-19T11:57:03;52.87;;;24.50;;
19105;SDS011;9685;54.338;18.672;2023-11-19T11:59:36;55.33;;;26.27;;
19105;SDS011;9685;54.338;18.672;2023-11-19T12:02:13;35.80;;;17.60;;
19105;SDS011;9685;54.338;18.672;2023-11-19T12:04:43;68.20;;;38.63;;
19105;SDS011;9685;54.338;18.672;2023-11-19T12:07:15;69.10;;;37.43;;
19105;SDS011;9685;54.338;18.672;2023-11-19T12:09:46;68.53;;;30.50;;
19105;SDS011;9685;54.338;18.672;2023-11-19T12:12:18;52.30;;;23.27;;
19105;SDS011;9685;54.338;18.672;2023-11-19T12:15:04;52.17;;;23.77;;
19105;SDS011;9685;54.338;18.672;2023-11-19T12:17:46;44.67;;;22.97;;
19105;SDS011;9685;54.338;18.672;2023-11-19T12:20:18;94.47;;;38.10;;
19105;SDS011;9685;54.338;18.672;2023-11-19T12:22:47;85.87;;;37.10;;
19105;SDS011;9685;54.338;18.672;2023-11-19T12:25:16;104.77;;;44.40;;
19105;SDS011;9685;54.338;18.672;2023-11-19T12:27:45;67.83;;;30.27;;
19105;SDS011;9685;54.338;18.672;2023-11-19T12:30:16;78.53;;;34.40;;
19105;SDS011;9685;54.338;18.672;2023-11-19T12:32:44;83.70;;;33.50;;
19105;SDS011;9685;54.338;18.672;2023-11-19T12:35:12;85.63;;;32.73;;
19105;SDS011;9685;54.338;18.672;2023-11-19T12:37:44;74.03;;;33.13;;
19105;SDS011;9685;54.338;18.672;2023-11-19T12:40:13;89.57;;;36.33;;
19105;SDS011;9685;54.338;18.672;2023-11-19T12:42:41;83.40;;;34.27;;
19105;SDS011;9685;54.338;18.672;2023-11-19T12:45:08;81.80;;;32.90;;
19105;SDS011;9685;54.338;18.672;2023-11-19T12:47:37;77.90;;;29.37;;
19105;SDS011;9685;54.338;18.672;2023-11-19T12:50:04;84.97;;;34.03;;
19105;SDS011;9685;54.338;18.672;2023-11-19T12:52:33;67.90;;;29.37;;
19105;SDS011;9685;54.338;18.672;2023-11-19T12:55:01;76.03;;;31.30;;
19105;SDS011;9685;54.338;18.672;2023-11-19T12:57:38;82.20;;;34.93;;
19105;SDS011;9685;54.338;18.672;2023-11-19T13:00:06;77.07;;;31.10;;
19105;SDS011;9685;54.338;18.672;2023-11-19T13:02:45;75.63;;;29.70;;
19105;SDS011;9685;54.338;18.672;2023-11-19T13:05:20;60.73;;;22.13;;
19105;SDS011;9685;54.338;18.672;2023-11-19T13:07:48;65.30;;;26.80;;
19105;SDS011;9685;54.338;18.672;2023-11-19T13:10:16;83.33;;;35.60;;
19105;SDS011;9685;54.338;18.672;2023-11-19T13:12:43;87.70;;;33.57;;
19105;SDS011;9685;54.338;18.672;2023-11-19T13:15:22;92.13;;;35.37;;
19105;SDS011;9685;54.338;18.672;2023-11-19T13:17:49;103.60;;;38.03;;
19105;SDS011;9685;54.338;18.672;2023-11-19T13:20:16;91.20;;;31.97;;
19105;SDS011;9685;54.338;18.672;2023-11-19T13:22:53;86.13;;;32.50;;
19105;SDS011;9685;54.338;18.672;2023-11-19T13:25:22;85.70;;;33.73;;
19105;SDS011;9685;54.338;18.672;2023-11-19T13:27:49;85.77;;;34.73;;
19105;SDS011;9685;54.338;18.672;2023-11-19T13:30:16;66.10;;;26.83;;
19105;SDS011;9685;54.338;18.672;2023-11-19T13:32:43;79.90;;;33.87;;
19105;SDS011;9685;54.338;18.672;2023-11-19T13:35:11;75.77;;;30.73;;
19105;SDS011;9685;54.338;18.672;2023-11-19T13:37:38;80.93;;;32.20;;
19105;SDS011;9685;54.338;18.672;2023-11-19T13:40:06;79.43;;;33.13;;
19105;SDS011;9685;54.338;18.672;2023-11-19T13:42:36;71.40;;;31.00;;
19105;SDS011;9685;54.338;18.672;2023-11-19T13:45:06;102.27;;;38.73;;
19105;SDS011;9685;54.338;18.672;2023-11-19T13:47:36;96.13;;;37.17;;
19105;SDS011;9685;54.338;18.672;2023-11-19T13:50:06;91.27;;;38.00;;
19105;SDS011;9685;54.338;18.672;2023-11-19T13:52:35;74.30;;;31.47;;
19105;SDS011;9685;54.338;18.672;2023-11-19T13:55:03;77.10;;;33.07;;
19105;SDS011;9685;54.338;18.672;2023-11-19T13:57:32;73.43;;;30.13;;
19105;SDS011;9685;54.338;18.672;2023-11-19T14:00:00;76.13;;;31.27;;
19105;SDS011;9685;54.338;18.672;2023-11-19T14:02:30;75.97;;;33.27;;
19105;SDS011;9685;54.338;18.672;2023-11-19T14:04:57;73.07;;;31.57;;
19105;SDS011;9685;54.338;18.672;2023-11-19T14:07:25;88.70;;;33.70;;
19105;SDS011;9685;54.338;18.672;2023-11-19T14:09:51;76.27;;;33.47;;
19105;SDS011;9685;54.338;18.672;2023-11-19T14:12:19;74.70;;;34.03;;
19105;SDS011;9685;54.338;18.672;2023-11-19T14:14:46;75.67;;;31.77;;
19105;SDS011;9685;54.338;18.672;2023-11-19T14:17:14;77.73;;;34.00;;
19105;SDS011;9685;54.338;18.672;2023-11-19T14:19:41;84.67;;;33.53;;
19105;SDS011;9685;54.338;18.672;2023-11-19T14:22:09;68.70;;;28.77;;
19105;SDS011;9685;54.338;18.672;2023-11-19T14:24:36;76.17;;;30.97;;
19105;SDS011;9685;54.338;18.672;2023-11-19T14:27:04;78.47;;;34.37;;
19105;SDS011;9685;54.338;18.672;2023-11-19T14:29:31;76.93;;;31.90;;
19105;SDS011;9685;54.338;18.672;2023-11-19T14:31:59;77.23;;;32.60;;
19105;SDS011;9685;54.338;18.672;2023-11-19T14:34:29;69.20;;;30.40;;
19105;SDS011;9685;54.338;18.672;2023-11-19T14:36:56;61.93;;;25.27;;